sensor_id;sensor_type;location;lat;lon;timestamp;pressure;altitude;pressure_sealevel;temperature
71463;BMP180;59266;52.608;13.260;2023-01-20T00:01:33;100506.00;;;2.50
71463;BMP180;59266;52.608;13.260;2023-01-20T00:03:59;100497.00;;;2.50
71463;BMP180;59266;52.608;13.260;2023-01-20T00:06:27;100497.00;;;2.50
71463;BMP180;59266;52.608;13.260;2023-01-20T00:08:55;100511.00;;;2.30
71463;BMP180;59266;52.608;13.260;2023-01-20T00:11:23;100506.00;;;2.20
71463;BMP180;59266;52.608;13.260;2023-01-20T00:13:55;100507.00;;;2.30
71463;BMP180;59266;52.608;13.260;2023-01-20T00:16:22;100510.00;;;2.40
71463;BMP180;59266;52.608;13.260;2023-01-20T00:18:49;100511.00;;;2.20
71463;BMP180;59266;52.608;13.260;2023-01-20T00:21:19;100515.00;;;2.20
71463;BMP180;59266;52.608;13.260;2023-01-20T00:23:47;100514.00;;;2.20
71463;BMP180;59266;52.608;13.260;2023-01-20T00:26:16;100521.00;;;2.20
71463;BMP180;59266;52.608;13.260;2023-01-20T00:28:43;100515.00;;;2.30
71463;BMP180;59266;52.608;13.260;2023-01-20T00:31:19;100518.00;;;2.30
71463;BMP180;59266;52.608;13.260;2023-01-20T00:33:48;100518.00;;;2.40
71463;BMP180;59266;52.608;13.260;2023-01-20T00:36:16;100526.00;;;2.30
71463;BMP180;59266;52.608;13.260;2023-01-20T00:38:43;100522.00;;;2.30
71463;BMP180;59266;52.608;13.260;2023-01-20T00:41:10;100525.00;;;2.30
71463;BMP180;59266;52.608;13.260;2023-01-20T00:43:37;100525.00;;;2.20
71463;BMP180;59266;52.608;13.260;2023-01-20T00:46:07;100537.00;;;2.10
71463;BMP180;59266;52.608;13.260;2023-01-20T00:48:36;100527.00;;;2.10
71463;BMP180;59266;52.608;13.260;2023-01-20T00:51:04;100534.00;;;2.20
71463;BMP180;59266;52.608;13.260;2023-01-20T00:53:31;100538.00;;;2.20
71463;BMP180;59266;52.608;13.260;2023-01-20T00:56:00;100534.00;;;2.20
71463;BMP180;59266;52.608;13.260;2023-01-20T00:58:28;100539.00;;;2.30
71463;BMP180;59266;52.608;13.260;2023-01-20T01:00:54;100546.00;;;2.40
71463;BMP180;59266;52.608;13.260;2023-01-20T01:03:25;100554.00;;;2.30
71463;BMP180;59266;52.608;13.260;2023-01-20T01:05:53;100563.00;;;2.30
71463;BMP180;59266;52.608;13.260;2023-01-20T01:08:20;100553.00;;;2.50
71463;BMP180;59266;52.608;13.260;2023-01-20T01:10:46;100556.00;;;2.50
71463;BMP180;59266;52.608;13.260;2023-01-20T01:13:13;100555.00;;;2.30
71463;BMP180;59266;52.608;13.260;2023-01-20T01:15:49;100559.00;;;2.30
71463;BMP180;59266;52.608;13.260;2023-01-20T01:18:18;100556.00;;;2.40
71463;BMP180;59266;52.608;13.260;2023-01-20T01:20:45;100565.00;;;2.40
71463;BMP180;59266;52.608;13.260;2023-01-20T01:23:12;100562.00;;;2.40
71463;BMP180;59266;52.608;13.260;2023-01-20T01:25:38;100564.00;;;2.40
71463;BMP180;59266;52.608;13.260;2023-01-20T01:28:05;100562.00;;;2.30
71463;BMP180;59266;52.608;13.260;2023-01-20T01:30:32;100564.00;;;2.30
71463;BMP180;59266;52.608;13.260;2023-01-20T01:32:58;100560.00;;;2.10
71463;BMP180;59266;52.608;13.260;2023-01-20T01:35:25;100559.00;;;2.20
71463;BMP180;59266;52.608;13.260;2023-01-20T01:37:52;100563.00;;;2.10
71463;BMP180;59266;52.608;13.260;2023-01-20T01:40:20;100570.00;;;2.20
71463;BMP180;59266;52.608;13.260;2023-01-20T01:42:46;100562.00;;;2.10
71463;BMP180;59266;52.608;13.260;2023-01-20T01:45:16;100565.00;;;2.10
71463;BMP180;59266;52.608;13.260;2023-01-20T01:47:52;100570.00;;;2.10
71463;BMP180;59266;52.608;13.260;2023-01-20T01:50:23;100570.00;;;2.10
71463;BMP180;59266;52.608;13.260;2023-01-20T01:52:52;100571.00;;;1.80
71463;BMP180;59266;52.608;13.260;2023-01-20T01:55:22;100578.00;;;1.90
71463;BMP180;59266;52.608;13.260;2023-01-20T01:57:50;100576.00;;;1.90
71463;BMP180;59266;52.608;13.260;2023-01-20T02:00:17;100592.00;;;2.00
71463;BMP180;59266;52.608;13.260;2023-01-20T02:02:44;100586.00;;;1.90
71463;BMP180;59266;52.608;13.260;2023-01-20T02:05:14;100593.00;;;1.80
71463;BMP180;59266;52.608;13.260;2023-01-20T02:07:54;100599.00;;;1.80
71463;BMP180;59266;52.608;13.260;2023-01-20T02:10:23;100601.00;;;1.80
71463;BMP180;59266;52.608;13.260;2023-01-20T02:12:50;100599.00;;;1.80
71463;BMP180;59266;52.608;13.260;2023-01-20T02:15:21;100610.00;;;1.70
71463;BMP180;59266;52.608;13.260;2023-01-20T02:18:08;100615.00;;;1.80
71463;BMP180;59266;52.608;13.260;2023-01-20T02:20:53;100613.00;;;1.80
71463;BMP180;59266;52.608;13.260;2023-01-20T02:23:45;100620.00;;;1.70
71463;BMP180;59266;52.608;13.260;2023-01-20T02:29:41;100625.00;;;1.70
71463;BMP180;59266;52.608;13.260;2023-01-20T02:35:10;100631.00;;;1.80
71463;BMP180;59266;52.608;13.260;2023-01-20T02:43:07;100641.00;;;1.80
71463;BMP180;59266;52.608;13.260;2023-01-20T02:45:47;100635.00;;;1.90
71463;BMP180;59266;52.608;13.260;2023-01-20T02:48:35;100643.00;;;1.80
71463;BMP180;59266;52.608;13.260;2023-01-20T02:51:09;100659.00;;;2.00
71463;BMP180;59266;52.608;13.260;2023-01-20T02:53:50;100667.00;;;1.90
71463;BMP180;59266;52.608;13.260;2023-01-20T02:56:20;100661.00;;;1.80
71463;BMP180;59266;52.608;13.260;2023-01-20T02:58:51;100661.00;;;1.70
71463;BMP180;59266;52.608;13.260;2023-01-20T03:01:24;100670.00;;;1.80
71463;BMP180;59266;52.608;13.260;2023-01-20T03:03:51;100671.00;;;1.80
71463;BMP180;59266;52.608;13.260;2023-01-20T03:06:25;100675.00;;;2.00
71463;BMP180;59266;52.608;13.260;2023-01-20T03:09:06;100684.00;;;2.00
71463;BMP180;59266;52.608;13.260;2023-01-20T03:11:37;100673.00;;;1.90
71463;BMP180;59266;52.608;13.260;2023-01-20T03:14:10;100680.00;;;1.80
71463;BMP180;59266;52.608;13.260;2023-01-20T03:16:40;100689.00;;;1.80
71463;BMP180;59266;52.608;13.260;2023-01-20T03:19:08;100689.00;;;1.80
71463;BMP180;59266;52.608;13.260;2023-01-20T03:21:37;100689.00;;;1.70
71463;BMP180;59266;52.608;13.260;2023-01-20T03:24:04;100693.00;;;1.80
71463;BMP180;59266;52.608;13.260;2023-01-20T03:26:34;100703.00;;;1.80
71463;BMP180;59266;52.608;13.260;2023-01-20T03:29:09;100700.00;;;1.80
71463;BMP180;59266;52.608;13.260;2023-01-20T03:31:55;100707.00;;;1.80
71463;BMP180;59266;52.608;13.260;2023-01-20T03:34:24;100710.00;;;1.80
71463;BMP180;59266;52.608;13.260;2023-01-20T03:36:52;100707.00;;;1.80
71463;BMP180;59266;52.608;13.260;2023-01-20T03:39:22;100710.00;;;1.80
71463;BMP180;59266;52.608;13.260;2023-01-20T03:42:13;100715.00;;;1.70
71463;BMP180;59266;52.608;13.260;2023-01-20T03:50:43;100710.00;;;1.90
71463;BMP180;59266;52.608;13.260;2023-01-20T03:53:37;100719.00;;;1.60
71463;BMP180;59266;52.608;13.260;2023-01-20T03:56:20;100706.00;;;1.70
71463;BMP180;59266;52.608;13.260;2023-01-20T03:58:50;100704.00;;;1.70
71463;BMP180;59266;52.608;13.260;2023-01-20T04:01:20;100710.00;;;1.80
71463;BMP180;59266;52.608;13.260;2023-01-20T04:03:52;100716.00;;;1.60
71463;BMP180;59266;52.608;13.260;2023-01-20T04:06:21;100723.00;;;1.50
71463;BMP180;59266;52.608;13.260;2023-01-20T04:08:55;100724.00;;;1.50
71463;BMP180;59266;52.608;13.260;2023-01-20T04:11:23;100723.00;;;1.40
71463;BMP180;59266;52.608;13.260;2023-01-20T04:13:51;100727.00;;;1.50
71463;BMP180;59266;52.608;13.260;2023-01-20T04:16:18;100737.00;;;1.50
71463;BMP180;59266;52.608;13.260;2023-01-20T04:18:48;100738.00;;;1.50
71463;BMP180;59266;52.608;13.260;2023-01-20T04:21:23;100746.00;;;1.60
71463;BMP180;59266;52.608;13.260;2023-01-20T04:24:04;100740.00;;;1.50
71463;BMP180;59266;52.608;13.260;2023-01-20T04:26:33;100746.00;;;1.50
71463;BMP180;59266;52.608;13.260;2023-01-20T04:28:59;100748.00;;;1.40
71463;BMP180;59266;52.608;13.260;2023-01-20T04:31:36;100750.00;;;1.40
71463;BMP180;59266;52.608;13.260;2023-01-20T04:34:03;100757.00;;;1.50
71463;BMP180;59266;52.608;13.260;2023-01-20T04:36:32;100755.00;;;1.60
71463;BMP180;59266;52.608;13.260;2023-01-20T04:39:01;100753.00;;;1.70
71463;BMP180;59266;52.608;13.260;2023-01-20T04:41:31;100766.00;;;1.60
71463;BMP180;59266;52.608;13.260;2023-01-20T04:44:04;100764.00;;;1.60
71463;BMP180;59266;52.608;13.260;2023-01-20T04:46:30;100767.00;;;1.50
71463;BMP180;59266;52.608;13.260;2023-01-20T04:48:57;100770.00;;;1.40
71463;BMP180;59266;52.608;13.260;2023-01-20T04:51:23;100772.00;;;1.60
71463;BMP180;59266;52.608;13.260;2023-01-20T04:53:55;100773.00;;;1.40
71463;BMP180;59266;52.608;13.260;2023-01-20T04:56:22;100784.00;;;1.30
71463;BMP180;59266;52.608;13.260;2023-01-20T04:58:48;100777.00;;;1.50
71463;BMP180;59266;52.608;13.260;2023-01-20T05:01:21;100785.00;;;1.20
71463;BMP180;59266;52.608;13.260;2023-01-20T05:03:50;100777.00;;;1.10
71463;BMP180;59266;52.608;13.260;2023-01-20T05:06:19;100784.00;;;1.00
71463;BMP180;59266;52.608;13.260;2023-01-20T05:08:46;100786.00;;;1.00
71463;BMP180;59266;52.608;13.260;2023-01-20T05:11:13;100790.00;;;1.10
71463;BMP180;59266;52.608;13.260;2023-01-20T05:13:40;100799.00;;;1.30
71463;BMP180;59266;52.608;13.260;2023-01-20T05:16:08;100792.00;;;1.30
71463;BMP180;59266;52.608;13.260;2023-01-20T05:18:35;100802.00;;;1.20
71463;BMP180;59266;52.608;13.260;2023-01-20T05:21:03;100798.00;;;1.20
71463;BMP180;59266;52.608;13.260;2023-01-20T05:23:30;100797.00;;;1.30
71463;BMP180;59266;52.608;13.260;2023-01-20T05:25:56;100806.00;;;1.40
71463;BMP180;59266;52.608;13.260;2023-01-20T05:28:23;100807.00;;;1.30
71463;BMP180;59266;52.608;13.260;2023-01-20T05:30:49;100804.00;;;1.40
71463;BMP180;59266;52.608;13.260;2023-01-20T05:33:16;100816.00;;;1.20
71463;BMP180;59266;52.608;13.260;2023-01-20T05:35:43;100821.00;;;1.20
71463;BMP180;59266;52.608;13.260;2023-01-20T05:38:09;100832.00;;;1.10
71463;BMP180;59266;52.608;13.260;2023-01-20T05:40:36;100821.00;;;1.00
71463;BMP180;59266;52.608;13.260;2023-01-20T05:43:03;100837.00;;;1.00
71463;BMP180;59266;52.608;13.260;2023-01-20T05:45:30;100838.00;;;1.10
71463;BMP180;59266;52.608;13.260;2023-01-20T05:47:58;100848.00;;;1.10
71463;BMP180;59266;52.608;13.260;2023-01-20T05:50:26;100849.00;;;1.10
71463;BMP180;59266;52.608;13.260;2023-01-20T05:52:53;100853.00;;;1.10
71463;BMP180;59266;52.608;13.260;2023-01-20T05:55:23;100860.00;;;1.00
71463;BMP180;59266;52.608;13.260;2023-01-20T05:57:50;100860.00;;;1.00
71463;BMP180;59266;52.608;13.260;2023-01-20T06:00:17;100861.00;;;1.00
71463;BMP180;59266;52.608;13.260;2023-01-20T06:02:44;100858.00;;;1.10
71463;BMP180;59266;52.608;13.260;2023-01-20T06:05:11;100867.00;;;1.00
71463;BMP180;59266;52.608;13.260;2023-01-20T06:07:38;100861.00;;;0.70
71463;BMP180;59266;52.608;13.260;2023-01-20T06:10:05;100881.00;;;0.80
71463;BMP180;59266;52.608;13.260;2023-01-20T06:12:39;100884.00;;;0.80
71463;BMP180;59266;52.608;13.260;2023-01-20T06:15:15;100887.00;;;0.80
71463;BMP180;59266;52.608;13.260;2023-01-20T06:17:54;100892.00;;;0.80
71463;BMP180;59266;52.608;13.260;2023-01-20T06:20:23;100895.00;;;0.80
71463;BMP180;59266;52.608;13.260;2023-01-20T06:22:53;100897.00;;;0.80
71463;BMP180;59266;52.608;13.260;2023-01-20T06:25:20;100900.00;;;0.80
71463;BMP180;59266;52.608;13.260;2023-01-20T06:27:47;100903.00;;;0.90
71463;BMP180;59266;52.608;13.260;2023-01-20T06:30:15;100899.00;;;1.10
71463;BMP180;59266;52.608;13.260;2023-01-20T06:32:42;100904.00;;;1.00
71463;BMP180;59266;52.608;13.260;2023-01-20T06:35:10;100909.00;;;1.00
71463;BMP180;59266;52.608;13.260;2023-01-20T06:37:38;100907.00;;;0.80
71463;BMP180;59266;52.608;13.260;2023-01-20T06:40:04;100923.00;;;0.90
71463;BMP180;59266;52.608;13.260;2023-01-20T06:42:31;100922.00;;;0.70
71463;BMP180;59266;52.608;13.260;2023-01-20T06:44:58;100929.00;;;0.90
71463;BMP180;59266;52.608;13.260;2023-01-20T06:47:27;100936.00;;;0.90
71463;BMP180;59266;52.608;13.260;2023-01-20T06:49:57;100946.00;;;0.80
71463;BMP180;59266;52.608;13.260;2023-01-20T06:52:24;100952.00;;;0.80
71463;BMP180;59266;52.608;13.260;2023-01-20T06:54:54;100945.00;;;0.90
71463;BMP180;59266;52.608;13.260;2023-01-20T06:57:21;100956.00;;;0.90
71463;BMP180;59266;52.608;13.260;2023-01-20T06:59:47;100963.00;;;0.80
71463;BMP180;59266;52.608;13.260;2023-01-20T07:02:14;100971.00;;;0.70
71463;BMP180;59266;52.608;13.260;2023-01-20T07:04:41;100976.00;;;0.70
71463;BMP180;59266;52.608;13.260;2023-01-20T07:07:11;100974.00;;;0.60
71463;BMP180;59266;52.608;13.260;2023-01-20T07:09:40;100976.00;;;0.60
71463;BMP180;59266;52.608;13.260;2023-01-20T07:12:07;100974.00;;;0.60
71463;BMP180;59266;52.608;13.260;2023-01-20T07:14:33;100988.00;;;0.60
71463;BMP180;59266;52.608;13.260;2023-01-20T07:17:03;100992.00;;;0.70
71463;BMP180;59266;52.608;13.260;2023-01-20T07:19:50;100989.00;;;0.90
71463;BMP180;59266;52.608;13.260;2023-01-20T07:22:23;100993.00;;;0.80
71463;BMP180;59266;52.608;13.260;2023-01-20T07:24:55;101004.00;;;0.60
71463;BMP180;59266;52.608;13.260;2023-01-20T07:27:22;101008.00;;;0.70
71463;BMP180;59266;52.608;13.260;2023-01-20T07:29:49;101011.00;;;0.70
71463;BMP180;59266;52.608;13.260;2023-01-20T07:32:18;101013.00;;;0.70
71463;BMP180;59266;52.608;13.260;2023-01-20T07:34:50;101007.00;;;0.60
71463;BMP180;59266;52.608;13.260;2023-01-20T07:37:25;101012.00;;;0.70
71463;BMP180;59266;52.608;13.260;2023-01-20T07:39:51;101016.00;;;0.80
71463;BMP180;59266;52.608;13.260;2023-01-20T07:42:18;101029.00;;;0.80
71463;BMP180;59266;52.608;13.260;2023-01-20T07:44:48;101028.00;;;0.90
71463;BMP180;59266;52.608;13.260;2023-01-20T07:47:15;101025.00;;;1.10
71463;BMP180;59266;52.608;13.260;2023-01-20T07:49:42;101036.00;;;1.00
71463;BMP180;59266;52.608;13.260;2023-01-20T07:52:11;101045.00;;;1.00
71463;BMP180;59266;52.608;13.260;2023-01-20T07:54:40;101034.00;;;0.80
71463;BMP180;59266;52.608;13.260;2023-01-20T07:57:09;101036.00;;;0.60
71463;BMP180;59266;52.608;13.260;2023-01-20T07:59:39;101032.00;;;0.80
71463;BMP180;59266;52.608;13.260;2023-01-20T08:02:08;101047.00;;;0.90
71463;BMP180;59266;52.608;13.260;2023-01-20T08:04:43;101054.00;;;0.70
71463;BMP180;59266;52.608;13.260;2023-01-20T08:07:15;101041.00;;;0.60
71463;BMP180;59266;52.608;13.260;2023-01-20T08:09:47;101055.00;;;0.60
71463;BMP180;59266;52.608;13.260;2023-01-20T08:12:15;101060.00;;;0.60
71463;BMP180;59266;52.608;13.260;2023-01-20T08:14:49;101057.00;;;0.70
71463;BMP180;59266;52.608;13.260;2023-01-20T08:17:16;101053.00;;;0.80
71463;BMP180;59266;52.608;13.260;2023-01-20T08:19:44;101061.00;;;1.00
71463;BMP180;59266;52.608;13.260;2023-01-20T08:22:11;101062.00;;;0.90
71463;BMP180;59266;52.608;13.260;2023-01-20T08:24:37;101059.00;;;1.00
71463;BMP180;59266;52.608;13.260;2023-01-20T08:27:04;101068.00;;;1.10
71463;BMP180;59266;52.608;13.260;2023-01-20T08:29:31;101067.00;;;1.20
71463;BMP180;59266;52.608;13.260;2023-01-20T08:32:01;101066.00;;;1.30
71463;BMP180;59266;52.608;13.260;2023-01-20T08:34:28;101081.00;;;1.50
71463;BMP180;59266;52.608;13.260;2023-01-20T08:36:58;101076.00;;;1.50
71463;BMP180;59266;52.608;13.260;2023-01-20T08:39:26;101073.00;;;1.50
71463;BMP180;59266;52.608;13.260;2023-01-20T08:41:53;101072.00;;;1.40
71463;BMP180;59266;52.608;13.260;2023-01-20T08:44:19;101086.00;;;1.50
71463;BMP180;59266;52.608;13.260;2023-01-20T08:46:52;101087.00;;;1.50
71463;BMP180;59266;52.608;13.260;2023-01-20T08:49:32;101083.00;;;1.40
71463;BMP180;59266;52.608;13.260;2023-01-20T08:51:59;101092.00;;;1.40
71463;BMP180;59266;52.608;13.260;2023-01-20T08:54:27;101084.00;;;1.50
71463;BMP180;59266;52.608;13.260;2023-01-20T08:57:02;101090.00;;;1.50
71463;BMP180;59266;52.608;13.260;2023-01-20T08:59:29;101084.00;;;1.70
71463;BMP180;59266;52.608;13.260;2023-01-20T09:01:56;101093.00;;;1.70
71463;BMP180;59266;52.608;13.260;2023-01-20T09:04:25;101088.00;;;1.70
71463;BMP180;59266;52.608;13.260;2023-01-20T09:06:53;101107.00;;;1.90
71463;BMP180;59266;52.608;13.260;2023-01-20T09:09:22;101109.00;;;1.90
71463;BMP180;59266;52.608;13.260;2023-01-20T09:11:51;101116.00;;;1.90
71463;BMP180;59266;52.608;13.260;2023-01-20T09:14:24;101119.00;;;1.80
71463;BMP180;59266;52.608;13.260;2023-01-20T09:16:56;101129.00;;;1.50
71463;BMP180;59266;52.608;13.260;2023-01-20T09:19:25;101124.00;;;1.50
71463;BMP180;59266;52.608;13.260;2023-01-20T09:21:59;101127.00;;;1.70
71463;BMP180;59266;52.608;13.260;2023-01-20T09:24:28;101138.00;;;1.70
71463;BMP180;59266;52.608;13.260;2023-01-20T09:26:55;101138.00;;;1.70
71463;BMP180;59266;52.608;13.260;2023-01-20T09:29:25;101142.00;;;1.60
71463;BMP180;59266;52.608;13.260;2023-01-20T09:31:54;101150.00;;;1.90
71463;BMP180;59266;52.608;13.260;2023-01-20T09:34:29;101152.00;;;1.80
71463;BMP180;59266;52.608;13.260;2023-01-20T09:37:00;101159.00;;;1.80
71463;BMP180;59266;52.608;13.260;2023-01-20T09:39:48;101153.00;;;1.90
71463;BMP180;59266;52.608;13.260;2023-01-20T09:45:59;101156.00;;;1.80
71463;BMP180;59266;52.608;13.260;2023-01-20T09:51:55;101169.00;;;1.70
71463;BMP180;59266;52.608;13.260;2023-01-20T09:54:48;101168.00;;;1.80
71463;BMP180;59266;52.608;13.260;2023-01-20T09:57:20;101173.00;;;1.90
71463;BMP180;59266;52.608;13.260;2023-01-20T09:59:57;101169.00;;;2.10
71463;BMP180;59266;52.608;13.260;2023-01-20T10:02:30;101177.00;;;2.00
71463;BMP180;59266;52.608;13.260;2023-01-20T10:05:01;101175.00;;;2.00
71463;BMP180;59266;52.608;13.260;2023-01-20T10:07:37;101178.00;;;2.20
71463;BMP180;59266;52.608;13.260;2023-01-20T10:10:33;101180.00;;;2.30
71463;BMP180;59266;52.608;13.260;2023-01-20T10:13:07;101186.00;;;2.30
71463;BMP180;59266;52.608;13.260;2023-01-20T10:15:36;101186.00;;;2.40
71463;BMP180;59266;52.608;13.260;2023-01-20T10:18:11;101188.00;;;2.60
71463;BMP180;59266;52.608;13.260;2023-01-20T10:21:01;101190.00;;;2.60
71463;BMP180;59266;52.608;13.260;2023-01-20T10:23:41;101190.00;;;2.40
71463;BMP180;59266;52.608;13.260;2023-01-20T10:28:58;101192.00;;;2.30
71463;BMP180;59266;52.608;13.260;2023-01-20T10:31:32;101199.00;;;2.30
71463;BMP180;59266;52.608;13.260;2023-01-20T10:34:08;101191.00;;;2.20
71463;BMP180;59266;52.608;13.260;2023-01-20T10:37:13;101201.00;;;2.50
71463;BMP180;59266;52.608;13.260;2023-01-20T10:39:55;101191.00;;;2.80
71463;BMP180;59266;52.608;13.260;2023-01-20T10:42:27;101197.00;;;2.80
71463;BMP180;59266;52.608;13.260;2023-01-20T10:44:54;101199.00;;;2.70
71463;BMP180;59266;52.608;13.260;2023-01-20T10:48:10;101199.00;;;2.70
71463;BMP180;59266;52.608;13.260;2023-01-20T10:51:00;101197.00;;;2.40
71463;BMP180;59266;52.608;13.260;2023-01-20T10:58:40;101214.00;;;2.60
71463;BMP180;59266;52.608;13.260;2023-01-20T11:01:16;101209.00;;;2.30
71463;BMP180;59266;52.608;13.260;2023-01-20T11:03:48;101208.00;;;2.60
71463;BMP180;59266;52.608;13.260;2023-01-20T11:06:34;101211.00;;;2.70
71463;BMP180;59266;52.608;13.260;2023-01-20T11:09:32;101208.00;;;2.70
71463;BMP180;59266;52.608;13.260;2023-01-20T11:12:27;101207.00;;;2.90
71463;BMP180;59266;52.608;13.260;2023-01-20T11:14:55;101212.00;;;3.00
71463;BMP180;59266;52.608;13.260;2023-01-20T11:17:34;101216.00;;;3.30
71463;BMP180;59266;52.608;13.260;2023-01-20T11:20:04;101217.00;;;3.00
71463;BMP180;59266;52.608;13.260;2023-01-20T11:22:33;101214.00;;;3.10
71463;BMP180;59266;52.608;13.260;2023-01-20T11:25:01;101231.00;;;3.00
71463;BMP180;59266;52.608;13.260;2023-01-20T11:27:39;101228.00;;;3.10
71463;BMP180;59266;52.608;13.260;2023-01-20T11:30:24;101225.00;;;2.90
71463;BMP180;59266;52.608;13.260;2023-01-20T11:35:56;101224.00;;;3.10
71463;BMP180;59266;52.608;13.260;2023-01-20T11:38:30;101226.00;;;2.90
71463;BMP180;59266;52.608;13.260;2023-01-20T11:40:57;101216.00;;;2.70
71463;BMP180;59266;52.608;13.260;2023-01-20T11:43:34;101216.00;;;3.00
71463;BMP180;59266;52.608;13.260;2023-01-20T11:46:09;101232.00;;;3.30
71463;BMP180;59266;52.608;13.260;2023-01-20T11:48:42;101222.00;;;3.60
71463;BMP180;59266;52.608;13.260;2023-01-20T11:51:18;101229.00;;;3.60
71463;BMP180;59266;52.608;13.260;2023-01-20T11:53:45;101231.00;;;3.60
71463;BMP180;59266;52.608;13.260;2023-01-20T11:56:21;101233.00;;;3.60
71463;BMP180;59266;52.608;13.260;2023-01-20T11:59:22;101234.00;;;3.40
71463;BMP180;59266;52.608;13.260;2023-01-20T12:04:50;101237.00;;;3.40
71463;BMP180;59266;52.608;13.260;2023-01-20T12:07:30;101239.00;;;3.40
71463;BMP180;59266;52.608;13.260;2023-01-20T12:10:01;101245.00;;;3.30
71463;BMP180;59266;52.608;13.260;2023-01-20T12:12:40;101239.00;;;3.40
71463;BMP180;59266;52.608;13.260;2023-01-20T12:15:14;101245.00;;;3.40
71463;BMP180;59266;52.608;13.260;2023-01-20T12:18:01;101231.00;;;3.40
71463;BMP180;59266;52.608;13.260;2023-01-20T12:20:43;101241.00;;;3.40
71463;BMP180;59266;52.608;13.260;2023-01-20T12:23:42;101245.00;;;3.30
71463;BMP180;59266;52.608;13.260;2023-01-20T12:26:14;101251.00;;;3.30
71463;BMP180;59266;52.608;13.260;2023-01-20T12:29:04;101253.00;;;3.40
71463;BMP180;59266;52.608;13.260;2023-01-20T12:31:36;101251.00;;;3.60
71463;BMP180;59266;52.608;13.260;2023-01-20T12:34:05;101263.00;;;3.60
71463;BMP180;59266;52.608;13.260;2023-01-20T12:37:09;101266.00;;;3.50
71463;BMP180;59266;52.608;13.260;2023-01-20T12:40:07;101266.00;;;3.30
71463;BMP180;59266;52.608;13.260;2023-01-20T12:43:06;101276.00;;;3.10
71463;BMP180;59266;52.608;13.260;2023-01-20T12:46:18;101279.00;;;3.20
71463;BMP180;59266;52.608;13.260;2023-01-20T12:49:06;101284.00;;;3.30
71463;BMP180;59266;52.608;13.260;2023-01-20T12:52:11;101281.00;;;3.20
71463;BMP180;59266;52.608;13.260;2023-01-20T12:58:49;101293.00;;;3.60
71463;BMP180;59266;52.608;13.260;2023-01-20T13:10:48;101323.00;;;3.40
71463;BMP180;59266;52.608;13.260;2023-01-20T13:13:49;101316.00;;;3.40
71463;BMP180;59266;52.608;13.260;2023-01-20T13:16:43;101329.00;;;3.70
71463;BMP180;59266;52.608;13.260;2023-01-20T13:19:15;101327.00;;;3.70
71463;BMP180;59266;52.608;13.260;2023-01-20T13:21:53;101325.00;;;3.80
71463;BMP180;59266;52.608;13.260;2023-01-20T13:24:38;101335.00;;;3.90
71463;BMP180;59266;52.608;13.260;2023-01-20T13:27:24;101343.00;;;4.00
71463;BMP180;59266;52.608;13.260;2023-01-20T13:29:59;101345.00;;;3.80
71463;BMP180;59266;52.608;13.260;2023-01-20T13:32:32;101350.00;;;3.80
71463;BMP180;59266;52.608;13.260;2023-01-20T13:40:50;101355.00;;;3.70
71463;BMP180;59266;52.608;13.260;2023-01-20T13:49:24;101366.00;;;3.80
71463;BMP180;59266;52.608;13.260;2023-01-20T13:51:59;101366.00;;;3.90
71463;BMP180;59266;52.608;13.260;2023-01-20T13:59:57;101367.00;;;3.80
71463;BMP180;59266;52.608;13.260;2023-01-20T14:05:51;101368.00;;;3.20
71463;BMP180;59266;52.608;13.260;2023-01-20T14:08:21;101365.00;;;3.40
71463;BMP180;59266;52.608;13.260;2023-01-20T14:10:51;101374.00;;;3.60
71463;BMP180;59266;52.608;13.260;2023-01-20T14:13:23;101369.00;;;3.70
71463;BMP180;59266;52.608;13.260;2023-01-20T14:16:18;101380.00;;;3.40
71463;BMP180;59266;52.608;13.260;2023-01-20T14:18:54;101376.00;;;3.60
71463;BMP180;59266;52.608;13.260;2023-01-20T14:21:30;101382.00;;;3.30
71463;BMP180;59266;52.608;13.260;2023-01-20T14:24:00;101388.00;;;3.30
71463;BMP180;59266;52.608;13.260;2023-01-20T14:26:40;101398.00;;;3.30
71463;BMP180;59266;52.608;13.260;2023-01-20T14:29:21;101391.00;;;3.40
71463;BMP180;59266;52.608;13.260;2023-01-20T14:31:53;101388.00;;;3.40
71463;BMP180;59266;52.608;13.260;2023-01-20T14:34:28;101403.00;;;3.20
71463;BMP180;59266;52.608;13.260;2023-01-20T14:37:32;101404.00;;;3.30
71463;BMP180;59266;52.608;13.260;2023-01-20T14:40:05;101403.00;;;3.50
71463;BMP180;59266;52.608;13.260;2023-01-20T14:42:32;101412.00;;;3.40
71463;BMP180;59266;52.608;13.260;2023-01-20T14:44:59;101408.00;;;2.90
71463;BMP180;59266;52.608;13.260;2023-01-20T14:47:26;101415.00;;;3.20
71463;BMP180;59266;52.608;13.260;2023-01-20T14:49:56;101420.00;;;3.10
71463;BMP180;59266;52.608;13.260;2023-01-20T14:52:29;101420.00;;;2.90
71463;BMP180;59266;52.608;13.260;2023-01-20T14:54:56;101420.00;;;2.70
71463;BMP180;59266;52.608;13.260;2023-01-20T14:57:27;101430.00;;;2.70
71463;BMP180;59266;52.608;13.260;2023-01-20T15:02:39;101438.00;;;2.80
71463;BMP180;59266;52.608;13.260;2023-01-20T15:05:25;101442.00;;;3.00
71463;BMP180;59266;52.608;13.260;2023-01-20T15:10:31;101449.00;;;3.00
71463;BMP180;59266;52.608;13.260;2023-01-20T15:12:59;101452.00;;;2.90
71463;BMP180;59266;52.608;13.260;2023-01-20T15:15:26;101456.00;;;2.90
71463;BMP180;59266;52.608;13.260;2023-01-20T15:18:13;101472.00;;;3.00
71463;BMP180;59266;52.608;13.260;2023-01-20T15:20:46;101473.00;;;3.00
71463;BMP180;59266;52.608;13.260;2023-01-20T15:23:30;101477.00;;;3.00
71463;BMP180;59266;52.608;13.260;2023-01-20T15:26:08;101476.00;;;2.60
71463;BMP180;59266;52.608;13.260;2023-01-20T15:28:43;101480.00;;;2.50
71463;BMP180;59266;52.608;13.260;2023-01-20T15:31:15;101484.00;;;2.50
71463;BMP180;59266;52.608;13.260;2023-01-20T15:33:43;101488.00;;;2.70
71463;BMP180;59266;52.608;13.260;2023-01-20T15:36:28;101492.00;;;2.60
71463;BMP180;59266;52.608;13.260;2023-01-20T15:38:58;101496.00;;;2.40
71463;BMP180;59266;52.608;13.260;2023-01-20T15:41:25;101494.00;;;2.40
71463;BMP180;59266;52.608;13.260;2023-01-20T15:43:52;101496.00;;;2.40
71463;BMP180;59266;52.608;13.260;2023-01-20T15:46:20;101506.00;;;2.50